Time;durP1;ratioP1;P1;durP2;ratioP2;P2;SDS_P1;SDS_P2;PMS_P1;PMS_P2;Temp;Humidity;BMP_temperature;BMP_pressure;BME280_temperature;BME280_humidity;BME280_pressure;Samples;Min_cycle;Max_cycle;Signal;HPM_P1;HPM_P2
2023/01/15 00:00:23;;;;;;;0.50;0.50;;;;;;;8.19;87.68;95729.44;29394;307;64014;-58
2023/01/15 00:00:54;;;;;;;0.50;0.50;;;;;;;8.18;87.59;95723.25;29395;240;63005;-57
2023/01/15 00:01:35;;;;;;;0.60;0.60;;;;;;;8.19;87.83;95724.84;29395;213;63009;-57
2023/01/15 00:02:07;;;;;;;0.50;0.50;;;;;;;8.22;87.63;95724.22;29417;219;63005;-59
2023/01/15 00:02:38;;;;;;;0.60;0.60;;;;;;;8.24;87.54;95716.63;29395;213;63009;-58
2023/01/15 00:03:09;;;;;;;0.50;0.50;;;;;;;8.22;87.55;95734.25;29395;213;63005;-56
2023/01/15 00:03:40;;;;;;;0.60;0.60;;;;;;;8.22;87.60;95726.13;29395;330;63009;-57
2023/01/15 00:04:11;;;;;;;0.60;0.60;;;;;;;8.22;87.51;95721.53;29394;201;64009;-58
2023/01/15 00:04:43;;;;;;;0.50;0.50;;;;;;;8.21;87.35;95736.16;29395;207;63009;-58
2023/01/15 00:05:15;;;;;;;0.50;0.50;;;;;;;8.21;87.69;95717.22;29395;227;63004;-59
2023/01/15 00:05:46;;;;;;;0.50;0.50;;;;;;;8.21;87.49;95722.63;29395;263;63009;-59
2023/01/15 00:06:18;;;;;;;0.50;0.50;;;;;;;8.23;87.52;95715.03;29395;289;63008;-57
2023/01/15 00:06:50;;;;;;;0.60;0.60;;;;;;;8.27;87.41;95712.50;29395;218;63008;-58
2023/01/15 00:07:21;;;;;;;0.50;0.50;;;;;;;8.28;87.33;95714.09;29395;196;63005;-54
2023/01/15 00:07:53;;;;;;;0.85;0.85;;;;;;;8.27;87.24;95715.22;29395;325;63019;-57
2023/01/15 00:08:24;;;;;;;0.50;0.50;;;;;;;8.29;87.30;95723.81;29395;202;63005;-57
2023/01/15 00:08:56;;;;;;;0.50;0.50;;;;;;;8.26;87.32;95708.22;29395;273;63009;-57
2023/01/15 00:09:29;;;;;;;0.50;0.50;;;;;;;8.26;87.41;95708.22;29394;204;64009;-58
2023/01/15 00:10:00;;;;;;;0.50;0.50;;;;;;;8.24;87.49;95707.72;29394;245;64013;-57
2023/01/15 00:10:32;;;;;;;0.60;0.60;;;;;;;8.23;87.72;95704.22;29395;316;63009;-58
2023/01/15 00:11:05;;;;;;;0.50;0.50;;;;;;;8.23;87.50;95695.31;29395;202;63009;-58
2023/01/15 00:11:36;;;;;;;0.60;0.60;;;;;;;8.24;87.64;95702.31;29395;219;63016;-57
2023/01/15 00:12:07;;;;;;;0.60;0.60;;;;;;;8.24;87.48;95705.00;29395;229;63009;-56
2023/01/15 00:12:39;;;;;;;0.50;0.50;;;;;;;8.27;87.56;95696.28;29395;197;63004;-57
2023/01/15 00:13:11;;;;;;;0.50;0.50;;;;;;;8.29;87.44;95697.59;29395;316;63009;-60
2023/01/15 00:13:43;;;;;;;0.50;0.50;;;;;;;8.35;87.01;95695.56;29395;227;63004;-59
2023/01/15 00:14:15;;;;;;;0.60;0.60;;;;;;;8.39;86.66;95696.56;29395;288;63015;-58
2023/01/15 00:14:46;;;;;;;0.50;0.50;;;;;;;8.39;86.81;95691.16;29395;202;63000;-58
2023/01/15 00:15:21;;;;;;;0.50;0.50;;;;;;;8.38;86.59;95689.56;29394;239;64014;-58
2023/01/15 00:15:52;;;;;;;0.50;0.50;;;;;;;8.36;86.92;95697.16;29395;224;63005;-58
2023/01/15 00:16:25;;;;;;;0.50;0.50;;;;;;;8.39;86.91;95691.16;29394;233;64014;-57
2023/01/15 00:16:57;;;;;;;0.50;0.50;;;;;;;8.39;86.78;95691.16;29395;211;63014;-58
2023/01/15 00:17:28;;;;;;;0.50;0.50;;;;;;;8.38;86.71;95695.75;29395;222;63009;-57
2023/01/15 00:17:59;;;;;;;0.50;0.50;;;;;;;8.37;86.93;95701.47;29395;202;63005;-57
2023/01/15 00:18:32;;;;;;;0.50;0.50;;;;;;;8.34;87.05;95708.28;29395;214;63009;-58
2023/01/15 00:19:06;;;;;;;0.50;0.50;;;;;;;8.42;86.91;95695.94;29395;227;63004;-59
2023/01/15 00:19:39;;;;;;;0.50;0.50;;;;;;;8.44;86.49;95688.31;29395;202;63009;-57
2023/01/15 00:20:11;;;;;;;0.50;0.50;;;;;;;8.45;86.97;95691.81;29395;227;63000;-74
2023/01/15 00:20:42;;;;;;;0.50;0.50;;;;;;;8.46;86.62;95691.53;29395;210;63009;-58
2023/01/15 00:21:13;;;;;;;0.50;0.50;;;;;;;8.49;86.53;95692.81;29394;221;64008;-59
2023/01/15 00:21:45;;;;;;;0.50;0.50;;;;;;;8.50;86.24;95697.91;29395;273;63008;-58
2023/01/15 00:22:16;;;;;;;0.50;0.50;;;;;;;8.51;86.26;95690.59;29395;247;63004;-56
2023/01/15 00:22:47;;;;;;;0.50;0.50;;;;;;;8.47;86.52;95686.91;29395;204;63009;-57
2023/01/15 00:27:37;;;;;;;0.50;0.50;;;;;;;8.44;86.51;95688.31;29394;208;64009;-57
2023/01/15 00:27:40;;;;;;;0.50;0.50;;;;;;;8.37;87.14;95679.84;29395;202;63009;-56
2023/01/15 00:28:14;;;;;;;0.50;0.50;;;;;;;8.31;88.10;95678.38;29395;215;63004;-57
2023/01/15 00:28:47;;;;;;;0.60;0.60;;;;;;;8.28;88.09;95676.28;29394;202;64013;-57
2023/01/15 00:29:20;;;;;;;0.50;0.50;;;;;;;8.31;87.92;95672.97;29395;336;63005;-57
2023/01/15 00:29:52;;;;;;;0.50;0.50;;;;;;;8.31;87.93;95679.16;29395;217;63009;-76
2023/01/15 00:30:23;;;;;;;0.50;0.50;;;;;;;8.34;87.84;95677.75;29395;211;63005;-58
2023/01/15 00:30:55;;;;;;;0.60;0.60;;;;;;;8.32;87.87;95685.34;29395;206;63022;-71
2023/01/15 00:31:27;;;;;;;0.50;0.50;;;;;;;8.34;88.04;95683.16;29394;204;64009;-57
2023/01/15 00:32:04;;;;;;;0.50;0.50;;;;;;;8.34;87.90;95685.88;29395;204;63009;-58
2023/01/15 00:32:35;;;;;;;0.50;0.50;;;;;;;8.35;87.89;95679.34;29395;199;63005;-57
2023/01/15 00:33:08;;;;;;;0.50;0.50;;;;;;;8.32;88.11;95682.62;29395;202;63009;-56
2023/01/15 00:33:39;;;;;;;0.50;0.50;;;;;;;8.29;88.42;95680.56;29395;379;63004;-58
2023/01/15 00:34:10;;;;;;;0.50;0.50;;;;;;;8.27;88.31;95680.88;29395;202;63009;-58
2023/01/15 00:34:41;;;;;;;0.50;0.50;;;;;;;8.24;88.96;95683.41;29395;209;63004;-57
2023/01/15 00:35:16;;;;;;;0.50;0.50;;;;;;;8.22;88.87;95680.19;29394;336;64013;-57
2023/01/15 00:35:47;;;;;;;0.50;0.50;;;;;;;8.21;89.03;95678.59;29395;260;63017;-59
2023/01/15 00:36:19;;;;;;;0.50;0.50;;;;;;;8.22;88.83;95685.59;29395;219;63024;-58
2023/01/15 00:36:50;;;;;;;0.50;0.50;;;;;;;8.22;88.51;95678.28;29395;197;63012;-59
2023/01/15 00:37:21;;;;;;;0.50;0.50;;;;;;;8.27;88.64;95690.91;29395;229;63009;-58
2023/01/15 00:37:53;;;;;;;0.50;0.50;;;;;;;8.26;88.53;95679.28;29395;223;63011;-57
2023/01/15 00:38:25;;;;;;;0.50;0.50;;;;;;;8.26;88.51;95675.78;29395;196;63009;-58
2023/01/15 00:38:56;;;;;;;0.50;0.50;;;;;;;8.28;88.76;95677.06;29395;220;63005;-67
2023/01/15 00:39:28;;;;;;;0.50;0.50;;;;;;;8.30;88.49;95671.37;29395;200;63009;-60
2023/01/15 00:39:59;;;;;;;0.50;0.50;;;;;;;8.35;88.07;95671.25;29394;216;64009;-58
2023/01/15 00:40:30;;;;;;;0.50;0.50;;;;;;;8.33;87.90;95666.16;29395;340;63009;-55
2023/01/15 00:41:01;;;;;;;0.50;0.50;;;;;;;8.36;88.16;95670.13;29395;222;63004;-58
2023/01/15 00:41:33;;;;;;;0.50;0.50;;;;;;;8.36;88.29;95660.12;29395;267;63009;-58
2023/01/15 00:42:04;;;;;;;0.50;0.50;;;;;;;8.44;87.87;95664.00;29395;204;63011;-57
2023/01/15 00:42:35;;;;;;;0.50;0.50;;;;;;;8.44;87.54;95666.69;29395;212;63009;-57
2023/01/15 00:43:06;;;;;;;0.50;0.50;;;;;;;8.45;87.48;95657.47;29395;259;63004;-68
2023/01/15 00:43:38;;;;;;;0.50;0.50;;;;;;;8.47;87.36;95660.69;29394;214;64008;-58
2023/01/15 00:44:10;;;;;;;0.50;0.50;;;;;;;8.44;87.70;95655.87;29395;227;63001;-57
2023/01/15 00:44:41;;;;;;;0.85;0.85;;;;;;;8.48;87.15;95656.06;29394;222;64014;-57
2023/01/15 00:45:12;;;;;;;0.50;0.50;;;;;;;8.47;87.44;95657.19;29395;218;63005;-57
2023/01/15 00:45:44;;;;;;;0.50;0.50;;;;;;;8.46;87.07;95648.25;29394;231;64014;-58
2023/01/15 00:46:15;;;;;;;0.50;0.50;;;;;;;8.46;86.99;95648.25;29394;237;64009;-57
2023/01/15 00:46:47;;;;;;;0.50;0.50;;;;;;;8.45;86.98;95646.66;29395;230;63009;-58
2023/01/15 00:47:20;;;;;;;0.50;0.50;;;;;;;8.46;87.00;95652.88;29395;225;63005;-56
2023/01/15 00:47:51;;;;;;;0.50;0.50;;;;;;;8.43;86.70;95643.47;29395;214;63009;-56
2023/01/15 00:48:22;;;;;;;0.50;0.50;;;;;;;8.45;87.10;95643.16;29395;202;63005;-57
2023/01/15 00:48:53;;;;;;;0.50;0.50;;;;;;;8.48;86.64;95646.06;29395;223;63009;-56
2023/01/15 00:49:25;;;;;;;0.50;0.50;;;;;;;8.54;86.49;95644.03;29395;217;63016;-58
2023/01/15 00:49:56;;;;;;;0.60;0.60;;;;;;;8.55;86.09;95646.41;29395;218;63009;-57
2023/01/15 00:50:30;;;;;;;0.50;0.50;;;;;;;8.53;86.36;95640.53;29394;268;64004;-57
2023/01/15 00:51:10;;;;;;;0.50;0.50;;;;;;;8.57;86.24;95644.22;29394;197;64013;-57
2023/01/15 00:51:42;;;;;;;0.50;0.50;;;;;;;8.58;85.98;95643.09;29395;213;63000;-56
2023/01/15 00:52:13;;;;;;;0.50;0.50;;;;;;;8.59;85.70;95646.59;29395;228;63009;-58
2023/01/15 00:52:44;;;;;;;0.50;0.50;;;;;;;8.59;85.95;95641.19;29395;222;63005;-59
2023/01/15 00:53:16;;;;;;;0.50;0.50;;;;;;;8.59;85.68;95646.59;29395;223;63009;-70
2023/01/15 00:53:47;;;;;;;0.50;0.50;;;;;;;8.55;85.81;95651.81;29395;220;63005;-57
2023/01/15 00:54:18;;;;;;;0.50;0.50;;;;;;;8.54;85.79;95642.13;29395;268;63009;-58
2023/01/15 00:54:50;;;;;;;0.50;0.50;;;;;;;8.52;86.11;95652.44;29395;210;63005;-58
2023/01/15 00:55:22;;;;;;;0.50;0.50;;;;;;;8.52;86.00;95638.94;29395;259;63009;-58
2023/01/15 00:55:54;;;;;;;0.52;0.52;;;;;;;8.50;86.30;95638.44;29395;199;63005;-58
2023/01/15 00:56:25;;;;;;;0.50;0.50;;;;;;;8.50;86.40;95643.84;29394;213;64013;-57
2023/01/15 00:56:57;;;;;;;0.50;0.50;;;;;;;8.48;86.25;95639.84;29395;331;63004;-58
2023/01/15 00:57:28;;;;;;;0.50;0.50;;;;;;;8.49;86.15;95626.03;29395;220;63009;-70
2023/01/15 00:57:59;;;;;;;0.50;0.50;;;;;;;8.46;86.16;95632.03;29395;218;63004;-74
2023/01/15 00:58:31;;;;;;;0.50;0.50;;;;;;;8.47;86.24;95638.25;29395;197;63008;-73
2023/01/15 00:59:03;;;;;;;0.50;0.50;;;;;;;8.48;86.17;95629.84;29395;221;63004;-59
2023/01/15 00:59:34;;;;;;;0.50;0.50;;;;;;;8.50;86.25;95637.62;29395;334;63022;-57
2023/01/15 01:00:07;;;;;;;0.50;0.50;;;;;;;8.50;86.00;95626.81;29395;197;63005;-58
2023/01/15 01:00:38;;;;;;;0.60;0.60;;;;;;;8.49;85.96;95620.63;29395;220;63009;-59
2023/01/15 01:01:09;;;;;;;0.50;0.50;;;;;;;8.49;85.73;95622.53;29395;205;63005;-58
2023/01/15 01:01:40;;;;;;;0.60;0.60;;;;;;;8.51;85.75;95633.81;29394;289;64013;-58
2023/01/15 01:02:12;;;;;;;0.50;0.50;;;;;;;8.49;85.79;95619.81;29394;231;64009;-57
2023/01/15 01:02:43;;;;;;;0.50;0.50;;;;;;;8.50;85.70;95624.91;29395;202;63009;-57
2023/01/15 01:03:15;;;;;;;0.55;0.55;;;;;;;8.53;85.60;95618.09;29395;219;63004;-58
2023/01/15 01:03:51;;;;;;;0.50;0.50;;;;;;;8.52;85.78;95613.78;29395;201;63009;-58
2023/01/15 01:04:24;;;;;;;0.50;0.50;;;;;;;8.50;85.82;95614.09;29395;362;63004;-58
2023/01/15 01:04:55;;;;;;;0.50;0.50;;;;;;;8.54;85.63;95617.78;29395;202;63009;-59
2023/01/15 01:05:26;;;;;;;0.50;0.50;;;;;;;8.57;85.20;95608.25;29394;202;64008;-56
2023/01/15 01:06:01;;;;;;;0.50;0.50;;;;;;;8.57;84.94;95606.34;29394;231;64008;-57
2023/01/15 01:06:32;;;;;;;0.50;0.50;;;;;;;8.54;85.10;95601.56;29395;225;63004;-68
2023/01/15 01:07:04;;;;;;;0.50;0.50;;;;;;;8.53;85.12;95604.56;29394;226;64009;-57
2023/01/15 01:07:35;;;;;;;0.50;0.50;;;;;;;8.55;84.87;95608.56;29395;204;63005;-58
2023/01/15 01:08:06;;;;;;;0.50;0.50;;;;;;;8.52;84.78;95611.88;29395;197;63009;-57
2023/01/15 01:08:38;;;;;;;0.50;0.50;;;;;;;8.52;85.12;95613.78;29395;204;63005;-59
2023/01/15 01:09:13;;;;;;;0.50;0.50;;;;;;;8.49;85.04;95620.63;29395;220;63009;-58
2023/01/15 01:09:44;;;;;;;0.50;0.50;;;;;;;8.50;85.05;95606.00;29394;330;64009;-57
2023/01/15 01:10:16;;;;;;;0.62;0.62;;;;;;;8.51;84.95;95607.59;29395;202;63009;-59
2023/01/15 01:10:49;;;;;;;0.50;0.50;;;;;;;8.52;85.02;95614.59;29395;197;63004;-58
2023/01/15 01:11:25;;;;;;;0.50;0.50;;;;;;;8.51;84.87;95615.69;29395;331;63009;-70
2023/01/15 01:11:56;;;;;;;0.50;0.50;;;;;;;8.52;85.18;95609.19;29395;198;63016;-57
2023/01/15 01:12:28;;;;;;;0.50;0.50;;;;;;;8.52;84.90;95614.59;29395;222;63009;-58
2023/01/15 01:13:00;;;;;;;0.50;0.50;;;;;;;8.51;85.28;95609.50;29394;304;64008;-58
2023/01/15 01:13:33;;;;;;;0.50;0.50;;;;;;;8.52;85.14;95614.59;29395;197;63008;-57
2023/01/15 01:14:05;;;;;;;0.50;0.50;;;;;;;8.51;84.86;95607.59;29395;219;63018;-58
2023/01/15 01:14:37;;;;;;;0.50;0.50;;;;;;;8.48;85.31;95608.22;29395;217;63018;-58
2023/01/15 01:15:10;;;;;;;0.60;0.60;;;;;;;8.47;85.20;95617.44;29395;228;63005;-58
2023/01/15 01:15:42;;;;;;;0.50;0.50;;;;;;;8.47;85.06;95606.62;29395;225;63017;-69
2023/01/15 01:16:26;;;;;;;0.50;0.50;;;;;;;8.49;84.96;95604.41;29395;237;63005;-58
2023/01/15 01:16:57;;;;;;;0.50;0.50;;;;;;;8.50;84.87;95595.19;29394;203;64009;-70
2023/01/15 01:17:28;;;;;;;0.45;0.45;;;;;;;8.49;85.18;95604.41;29395;261;63005;-58
2023/01/15 01:18:00;;;;;;;0.50;0.50;;;;;;;8.50;84.93;95606.00;29394;198;64013;-58
2023/01/15 01:18:31;;;;;;;0.50;0.50;;;;;;;8.55;84.77;95599.66;29395;228;63004;-58
2023/01/15 01:19:07;;;;;;;0.50;0.50;;;;;;;8.52;84.79;95598.38;29395;295;63009;-57
2023/01/15 01:19:42;;;;;;;0.50;0.50;;;;;;;8.52;84.69;95598.38;29395;234;63014;-58
2023/01/15 01:20:15;;;;;;;0.50;0.50;;;;;;;8.49;84.49;95609.81;29395;210;63009;-58
2023/01/15 01:20:47;;;;;;;0.60;0.60;;;;;;;8.52;84.64;95601.06;29395;268;63004;-58
2023/01/15 01:21:18;;;;;;;0.50;0.50;;;;;;;8.51;84.66;95604.88;29395;235;63009;-57
2023/01/15 01:21:50;;;;;;;0.50;0.50;;;;;;;8.51;84.76;95607.59;29395;209;63005;-58
2023/01/15 01:22:21;;;;;;;0.50;0.50;;;;;;;8.51;84.62;95613.00;29395;217;63009;-58
2023/01/15 01:22:54;;;;;;;0.50;0.50;;;;;;;8.47;84.75;95601.22;29395;260;63005;-57
2023/01/15 01:23:25;;;;;;;0.55;0.55;;;;;;;8.45;84.86;95610.72;29394;199;64013;-58
2023/01/15 01:24:00;;;;;;;0.50;0.50;;;;;;;8.49;84.72;95604.41;29395;219;63005;-56
2023/01/15 01:24:32;;;;;;;0.55;0.55;;;;;;;8.52;84.48;95601.06;29395;242;63009;-58
2023/01/15 01:25:04;;;;;;;0.50;0.50;;;;;;;8.51;84.54;95594.06;29395;207;63005;-69
2023/01/15 01:25:35;;;;;;;0.60;0.60;;;;;;;8.52;84.53;95592.97;29395;218;63009;-58
2023/01/15 01:26:06;;;;;;;0.50;0.50;;;;;;;8.51;84.53;95607.59;29395;224;63000;-57
2023/01/15 01:26:38;;;;;;;1.30;1.30;;;;;;;8.50;84.90;95595.19;29395;258;63009;-58
2023/01/15 01:27:09;;;;;;;0.50;0.50;;;;;;;8.51;84.67;95604.88;29395;305;63004;-60
2023/01/15 01:27:43;;;;;;;0.50;0.50;;;;;;;8.50;84.51;95595.19;29395;225;63019;-57
2023/01/15 01:28:15;;;;;;;0.50;0.50;;;;;;;8.51;84.80;95604.88;29395;222;63004;-58
2023/01/15 01:28:52;;;;;;;0.50;0.50;;;;;;;8.50;84.95;95591.69;29394;224;64014;-57
2023/01/15 01:29:23;;;;;;;0.50;0.50;;;;;;;8.47;84.84;95595.81;29394;215;64009;-57
2023/01/15 01:29:56;;;;;;;0.57;0.57;;;;;;;8.48;84.75;95602.81;29395;203;63009;-58
2023/01/15 01:30:31;;;;;;;0.50;0.50;;;;;;;8.48;84.76;95607.41;29395;242;63005;-58
2023/01/15 01:31:07;;;;;;;0.50;0.50;;;;;;;8.47;84.86;95605.81;29395;205;63009;-57
2023/01/15 01:31:39;;;;;;;0.50;0.50;;;;;;;8.46;85.12;95605.03;29395;270;63005;-59
2023/01/15 01:32:10;;;;;;;0.50;0.50;;;;;;;8.45;84.94;95603.41;29395;218;63009;-58
2023/01/15 01:32:45;;;;;;;0.50;0.50;;;;;;;8.47;85.16;95600.41;29395;215;63005;-57
2023/01/15 01:33:17;;;;;;;0.50;0.50;;;;;;;8.49;84.86;95603.59;29395;228;63009;-58
2023/01/15 01:33:50;;;;;;;0.50;0.50;;;;;;;8.48;84.70;95602.81;29394;259;64009;-57
2023/01/15 01:34:21;;;;;;;0.50;0.50;;;;;;;8.49;84.81;95604.41;29395;272;63009;-57
2023/01/15 01:34:53;;;;;;;0.50;0.50;;;;;;;8.47;84.74;95606.62;29394;271;64009;-57
2023/01/15 01:35:26;;;;;;;0.50;0.50;;;;;;;8.46;84.96;95609.63;29395;212;63008;-58
2023/01/15 01:35:57;;;;;;;0.65;0.65;;;;;;;8.43;85.09;95611.03;29395;249;63009;-58
2023/01/15 01:36:34;;;;;;;0.60;0.60;;;;;;;8.42;85.19;95622.97;29395;218;63009;-57
2023/01/15 01:37:05;;;;;;;0.50;0.50;;;;;;;8.42;85.51;95619.47;29395;335;63005;-58
2023/01/15 01:37:36;;;;;;;0.50;0.50;;;;;;;8.42;85.30;95625.66;29395;221;63009;-58
2023/01/15 01:38:12;;;;;;;0.50;0.50;;;;;;;8.40;85.54;95623.25;29395;313;63005;-56
2023/01/15 01:38:48;;;;;;;0.50;0.50;;;;;;;8.41;85.37;95621.38;29395;213;63009;-57
2023/01/15 01:39:20;;;;;;;0.50;0.50;;;;;;;8.40;85.43;95617.06;29395;219;63005;-57
2023/01/15 01:39:51;;;;;;;0.50;0.50;;;;;;;8.41;85.68;95621.38;29395;198;63009;-56
2023/01/15 01:40:22;;;;;;;0.50;0.50;;;;;;;8.43;85.28;95616.44;29394;236;64009;-58
2023/01/15 01:40:55;;;;;;;0.50;0.50;;;;;;;8.44;85.44;95620.75;29395;303;63009;-58
2023/01/15 01:41:28;;;;;;;0.50;0.50;;;;;;;8.45;85.61;95614.22;29395;224;63004;-58
2023/01/15 01:41:59;;;;;;;0.50;0.50;;;;;;;8.44;85.36;95611.84;29395;211;63016;-58
2023/01/15 01:42:30;;;;;;;0.50;0.50;;;;;;;8.45;85.99;95603.41;29395;210;63007;-57
2023/01/15 01:43:01;;;;;;;0.50;0.50;;;;;;;8.44;86.00;95612.63;29395;211;63008;-58
2023/01/15 01:43:54;;;;;;;0.50;0.50;;;;;;;8.44;85.28;95607.22;29394;247;64008;-58
2023/01/15 01:44:57;;;;;;;0.50;0.50;;;;;;;8.51;85.43;95604.09;29395;219;63009;-58
2023/01/15 01:45:32;;;;;;;0.50;0.50;;;;;;;8.50;85.24;95588.97;29395;197;63005;-58
2023/01/15 01:46:04;;;;;;;0.50;0.50;;;;;;;8.52;85.39;95586.75;29395;221;63009;-66
2023/01/15 01:46:36;;;;;;;0.50;0.50;;;;;;;8.58;85.10;95589.03;29395;256;63005;-68
2023/01/15 01:47:14;;;;;;;0.50;0.50;;;;;;;8.62;84.74;95592.69;29395;206;63009;-58
2023/01/15 01:47:48;;;;;;;0.50;0.50;;;;;;;8.61;84.82;95593.00;29395;236;63005;-58
2023/01/15 01:48:38;;;;;;;0.50;0.50;;;;;;;8.57;84.88;95587.44;29394;197;64013;-59
2023/01/15 01:49:13;;;;;;;0.50;0.50;;;;;;;8.60;84.80;95594.91;29395;287;63004;-59
2023/01/15 01:49:47;;;;;;;0.60;0.60;;;;;;;8.61;84.56;95588.41;29395;197;63009;-58
2023/01/15 01:50:19;;;;;;;0.50;0.50;;;;;;;8.59;84.73;95592.53;29395;276;63012;-58
2023/01/15 01:50:53;;;;;;;0.55;0.55;;;;;;;8.60;84.93;95597.63;29395;232;63008;-58
2023/01/15 01:51:27;;;;;;;0.50;0.50;;;;;;;8.62;84.85;95597.31;29395;253;63005;-58
2023/01/15 01:52:07;;;;;;;0.50;0.50;;;;;;;8.60;84.78;95600.31;29395;216;63009;-59
2023/01/15 01:52:55;;;;;;;0.50;0.50;;;;;;;8.58;85.23;95597.13;29395;217;63005;-57
2023/01/15 01:53:30;;;;;;;0.52;0.52;;;;;;;8.64;84.94;95592.41;29394;242;64013;-58
2023/01/15 01:54:02;;;;;;;0.50;0.50;;;;;;;8.65;84.89;95594.78;29395;219;63005;-58
2023/01/15 01:54:38;;;;;;;0.50;0.50;;;;;;;8.64;84.56;95590.50;29395;205;63009;-57
2023/01/15 01:55:13;;;;;;;0.50;0.50;;;;;;;8.62;84.95;95592.69;29395;225;63005;-57
2023/01/15 01:55:46;;;;;;;0.50;0.50;;;;;;;8.61;85.00;95584.91;29395;216;63009;-59
2023/01/15 01:56:18;;;;;;;0.50;0.50;;;;;;;8.59;85.01;95582.50;29395;206;63004;-57
2023/01/15 01:56:50;;;;;;;0.50;0.50;;;;;;;8.58;85.11;95583.62;29395;226;63009;-59
2023/01/15 01:57:23;;;;;;;0.50;0.50;;;;;;;8.56;85.24;95580.44;29395;290;63004;-58
2023/01/15 01:57:58;;;;;;;0.50;0.50;;;;;;;8.57;85.54;95584.72;29394;217;64013;-57
2023/01/15 01:58:34;;;;;;;0.50;0.50;;;;;;;8.60;85.45;95584.09;29395;208;63010;-58
2023/01/15 01:59:07;;;;;;;0.50;0.50;;;;;;;8.63;85.22;95588.87;29395;203;63013;-59
2023/01/15 01:59:39;;;;;;;0.50;0.50;;;;;;;8.64;85.06;95578.88;29394;202;64009;-58
2023/01/15 02:00:14;;;;;;;0.50;0.50;;;;;;;8.63;85.08;95588.87;29395;203;63009;-59
2023/01/15 02:00:48;;;;;;;0.50;0.50;;;;;;;8.59;85.32;95585.22;29394;221;64009;-58
2023/01/15 02:01:22;;;;;;;0.50;0.50;;;;;;;8.56;85.43;95583.13;29395;206;63009;-58
2023/01/15 02:01:53;;;;;;;0.50;0.50;;;;;;;8.55;85.67;95581.53;29395;299;63005;-57
2023/01/15 02:02:25;;;;;;;0.50;0.50;;;;;;;8.55;85.72;95580.72;29395;217;63009;-58
2023/01/15 02:02:57;;;;;;;0.70;0.70;;;;;;;8.51;85.87;95572.44;29395;210;63005;-58
2023/01/15 02:03:37;;;;;;;0.50;0.50;;;;;;;8.52;86.02;95582.16;29395;220;63009;-58
2023/01/15 02:04:11;;;;;;;0.50;0.50;;;;;;;8.50;85.89;95576.25;29417;227;63016;-56
2023/01/15 02:04:43;;;;;;;0.50;0.50;;;;;;;8.49;86.11;95571.97;29395;197;63009;-58
2023/01/15 02:05:24;;;;;;;0.50;0.50;;;;;;;8.52;86.06;95568.62;29395;277;63004;-59
2023/01/15 02:05:59;;;;;;;0.50;0.50;;;;;;;8.53;86.10;95564.81;29394;199;64013;-72
2023/01/15 02:06:31;;;;;;;0.50;0.50;;;;;;;8.52;86.08;95576.75;29394;205;64009;-59
2023/01/15 02:07:04;;;;;;;0.50;0.50;;;;;;;8.53;85.98;95575.63;29395;266;63009;-70
2023/01/15 02:07:36;;;;;;;0.50;0.50;;;;;;;8.58;85.88;95575.50;29395;203;63005;-58
2023/01/15 02:08:08;;;;;;;0.50;0.50;;;;;;;8.61;85.70;95574.88;29395;254;63009;-58
2023/01/15 02:08:39;;;;;;;0.50;0.50;;;;;;;8.59;85.82;95571.69;29395;240;63005;-58
2023/01/15 02:09:14;;;;;;;0.50;0.50;;;;;;;8.59;85.99;95570.91;29395;211;63009;-59
2023/01/15 02:09:45;;;;;;;0.50;0.50;;;;;;;8.62;85.81;95581.88;29395;221;63005;-58
2023/01/15 02:10:17;;;;;;;0.50;0.50;;;;;;;8.61;85.94;95568.69;29395;215;63014;-58
2023/01/15 02:10:53;;;;;;;0.50;0.50;;;;;;;8.61;85.89;95574.88;29395;309;63012;-59
2023/01/15 02:11:33;;;;;;;0.50;0.50;;;;;;;8.59;86.37;95576.31;29395;223;63009;-57
2023/01/15 02:12:18;;;;;;;0.60;0.60;;;;;;;8.57;86.06;95573.91;29416;329;64009;-58
2023/01/15 02:13:14;;;;;;;0.60;0.60;;;;;;;8.54;86.20;95579.13;29395;207;63008;-58
2023/01/15 02:14:18;;;;;;;0.50;0.50;;;;;;;8.51;86.49;95567.03;29395;212;63004;-58
2023/01/15 02:15:12;;;;;;;0.57;0.57;;;;;;;8.50;86.56;95565.44;29395;226;63018;-58
2023/01/15 02:15:53;;;;;;;0.50;0.50;;;;;;;8.52;86.51;95565.94;29395;266;63005;-57
2023/01/15 02:16:29;;;;;;;;;;;;;;;8.53;86.62;95572.94;29996;982;6005;-58
2023/01/15 02:17:32;;;;;;;0.50;0.50;;;;;;;8.61;86.49;95568.69;29400;199;63009;-59
2023/01/15 02:18:23;;;;;;;0.50;0.50;;;;;;;8.59;86.07;95552.75;29394;216;64009;-58
2023/01/15 02:19:42;;;;;;;0.60;0.60;;;;;;;8.61;86.36;95552.47;29417;273;125009;-57
2023/01/15 02:20:30;;;;;;;0.50;0.50;;;;;;;8.63;86.65;95556.44;29373;205;63004;-57
2023/01/15 02:21:39;;;;;;;0.50;0.50;;;;;;;8.59;86.77;95557.37;29395;225;63009;-57
2023/01/15 02:22:54;;;;;;;0.50;0.50;;;;;;;8.54;87.25;95558.31;29395;212;63005;-58
2023/01/15 02:24:10;;;;;;;0.50;0.50;;;;;;;8.51;87.15;95564.34;29394;341;64013;-57
2023/01/15 02:25:18;;;;;;;0.50;0.50;;;;;;;8.53;87.30;95562.12;29395;199;63005;-59
2023/01/15 02:26:32;;;;;;;0.50;0.50;;;;;;;8.52;87.31;95560.53;29394;225;64013;-57
2023/01/15 02:27:19;;;;;;;0.60;0.60;;;;;;;8.53;87.70;95554.00;29395;208;63004;-58
2023/01/15 02:28:15;;;;;;;0.60;0.60;;;;;;;8.51;87.38;95553.53;29395;277;63008;-58
2023/01/15 02:28:50;;;;;;;0.60;0.60;;;;;;;8.50;87.38;95560.03;29395;275;63005;-58
2023/01/15 02:29:54;;;;;;;0.50;0.50;;;;;;;8.49;87.50;95558.44;29395;210;63009;-57
2023/01/15 02:30:34;;;;;;;0.50;0.50;;;;;;;8.50;87.89;95554.62;29394;219;64013;-58
2023/01/15 02:31:15;;;;;;;0.60;0.60;;;;;;;8.52;87.72;95549.72;29416;226;64009;-57
2023/01/15 02:31:51;;;;;;;0.60;0.60;;;;;;;8.51;87.88;95556.22;29377;221;125009;-58
2023/01/15 02:32:32;;;;;;;0.50;0.50;;;;;;;8.52;88.14;95555.13;29395;212;63005;-58
2023/01/15 02:33:19;;;;;;;0.50;0.50;;;;;;;8.56;87.90;95556.09;29395;257;63009;-59
2023/01/15 02:34:05;;;;;;;0.50;0.50;;;;;;;8.61;87.55;95553.25;29395;225;63004;-60
2023/01/15 02:34:47;;;;;;;0.50;0.50;;;;;;;8.64;87.76;95547.22;29395;291;63009;-59
2023/01/15 02:35:31;;;;;;;0.50;0.50;;;;;;;8.64;87.90;95546.44;29395;220;63004;-58
2023/01/15 02:36:06;;;;;;;0.50;0.50;;;;;;;8.62;87.67;95538.62;29395;219;63014;-57
2023/01/15 02:36:52;;;;;;;0.50;0.50;;;;;;;8.64;87.79;95549.13;29394;235;64009;-65
2023/01/15 02:37:27;;;;;;;0.60;0.60;;;;;;;8.61;87.60;95537.03;29395;197;63026;-58
2023/01/15 02:38:04;;;;;;;0.60;0.60;;;;;;;8.62;87.88;95543.25;29395;227;63005;-58
2023/01/15 02:38:42;;;;;;;0.50;0.50;;;;;;;8.59;87.93;95539.25;29394;198;64013;-72
2023/01/15 02:39:17;;;;;;;0.50;0.50;;;;;;;8.57;88.03;95544.16;29395;260;63005;-58
2023/01/15 02:39:50;;;;;;;0.50;0.50;;;;;;;8.54;88.37;95539.38;29395;366;63009;-56
2023/01/15 02:40:25;;;;;;;0.50;0.50;;;;;;;8.53;88.58;95545.91;29394;222;64009;-58
2023/01/15 02:41:01;;;;;;;0.52;0.52;;;;;;;8.54;88.48;95542.09;29395;197;63009;-59
2023/01/15 02:41:42;;;;;;;0.50;0.50;;;;;;;8.57;88.25;95552.28;29395;224;63018;-58
2023/01/15 02:42:16;;;;;;;0.50;0.50;;;;;;;8.57;88.01;95540.66;29417;284;63009;-58
2023/01/15 02:42:49;;;;;;;0.50;0.50;;;;;;;8.60;88.17;95546.25;29394;203;64008;-58
2023/01/15 02:43:22;;;;;;;0.50;0.50;;;;;;;8.59;88.10;95541.94;29395;331;63009;-70
2023/01/15 02:43:56;;;;;;;0.50;0.50;;;;;;;8.57;87.96;95540.66;29395;230;63005;-57
2023/01/15 02:44:32;;;;;;;0.50;0.50;;;;;;;8.55;88.47;95543.69;29395;288;63023;-57
2023/01/15 02:45:08;;;;;;;0.50;0.50;;;;;;;8.60;88.18;95546.25;29395;227;63005;-58
2023/01/15 02:45:42;;;;;;;0.50;0.50;;;;;;;8.62;87.98;95535.13;29395;219;63009;-57
2023/01/15 02:46:15;;;;;;;0.50;0.50;;;;;;;8.61;88.28;95547.84;29395;252;63005;-58
2023/01/15 02:46:48;;;;;;;0.50;0.50;;;;;;;8.64;88.01;95541.81;29395;197;63027;-59
2023/01/15 02:47:25;;;;;;;0.50;0.50;;;;;;;8.63;88.04;95545.62;29395;202;63005;-58
2023/01/15 02:48:13;;;;;;;0.50;0.50;;;;;;;8.61;88.24;95542.44;29394;222;64013;-58
2023/01/15 02:48:51;;;;;;;0.50;0.50;;;;;;;8.59;88.08;95539.25;29395;230;63004;-58
2023/01/15 02:49:23;;;;;;;0.50;0.50;;;;;;;8.59;88.13;95547.34;29395;260;63009;-58
2023/01/15 02:49:59;;;;;;;0.50;0.50;;;;;;;8.60;88.11;95543.53;29395;226;63004;-59
2023/01/15 02:50:36;;;;;;;0.50;0.50;;;;;;;8.58;88.26;95537.66;29395;269;63008;-58
2023/01/15 02:51:14;;;;;;;0.50;0.50;;;;;;;8.57;88.27;95544.16;29395;246;63005;-58
2023/01/15 02:52:05;;;;;;;0.50;0.50;;;;;;;8.64;88.07;95546.44;29395;208;63014;-59
2023/01/15 02:52:44;;;;;;;0.50;0.50;;;;;;;8.72;87.72;95549.13;29395;216;63009;-58
2023/01/15 02:53:24;;;;;;;0.50;0.50;;;;;;;8.72;88.07;95543.72;29394;202;64013;-58
2023/01/15 02:54:04;;;;;;;0.50;0.50;;;;;;;8.68;87.90;95537.34;29395;196;63005;-68